sensor_id;sensor_type;location;lat;lon;timestamp;pressure;altitude;pressure_sealevel;temperature;humidity
9225;BME280;4647;48.072;11.616;2023-02-14T00:01:53;97051.00;;;-0.59;88.40
9225;BME280;4647;48.072;11.616;2023-02-14T00:04:24;97049.56;;;-0.38;88.22
9225;BME280;4647;48.072;11.616;2023-02-14T00:06:53;97052.78;;;-0.55;88.07
9225;BME280;4647;48.072;11.616;2023-02-14T00:09:22;97051.91;;;-0.50;88.22
9225;BME280;4647;48.072;11.616;2023-02-14T00:11:51;97063.94;;;-0.53;88.20
9225;BME280;4647;48.072;11.616;2023-02-14T00:14:19;97065.94;;;-0.77;88.62
9225;BME280;4647;48.072;11.616;2023-02-14T00:17:00;97060.53;;;-0.86;89.20
9225;BME280;4647;48.072;11.616;2023-02-14T00:19:31;97055.13;;;-1.13;89.48
9225;BME280;4647;48.072;11.616;2023-02-14T00:22:00;97064.81;;;-1.04;89.64
9225;BME280;4647;48.072;11.616;2023-02-14T00:24:29;97056.25;;;-1.01;89.27
9225;BME280;4647;48.072;11.616;2023-02-14T00:26:58;97051.78;;;-1.05;89.35
9225;BME280;4647;48.072;11.616;2023-02-14T00:29:29;97053.28;;;-0.99;88.99
9225;BME280;4647;48.072;11.616;2023-02-14T00:31:58;97051.22;;;-1.02;88.59
9225;BME280;4647;48.072;11.616;2023-02-14T00:34:27;97052.25;;;-1.17;88.99
9225;BME280;4647;48.072;11.616;2023-02-14T00:39:56;97058.16;;;-0.87;88.63
9225;BME280;4647;48.072;11.616;2023-02-14T00:42:24;97049.94;;;-1.24;89.37
9225;BME280;4647;48.072;11.616;2023-02-14T00:44:52;97052.63;;;-0.91;89.21
9225;BME280;4647;48.072;11.616;2023-02-14T00:47:21;97051.59;;;-1.09;89.16
9225;BME280;4647;48.072;11.616;2023-02-14T00:49:49;97059.25;;;-0.75;88.60
9225;BME280;4647;48.072;11.616;2023-02-14T00:52:20;97056.81;;;-0.57;88.31
9225;BME280;4647;48.072;11.616;2023-02-14T00:54:49;97050.91;;;-0.54;88.12
9225;BME280;4647;48.072;11.616;2023-02-14T00:57:17;97056.22;;;-0.54;87.80
9225;BME280;4647;48.072;11.616;2023-02-14T00:59:46;97056.91;;;-0.63;87.73
9225;BME280;4647;48.072;11.616;2023-02-14T01:02:14;97061.06;;;-0.70;87.77
9225;BME280;4647;48.072;11.616;2023-02-14T01:04:43;97056.72;;;-0.66;88.13
9225;BME280;4647;48.072;11.616;2023-02-14T01:07:12;97066.19;;;-0.60;87.69
9225;BME280;4647;48.072;11.616;2023-02-14T01:09:43;97068.66;;;-0.64;87.60
9225;BME280;4647;48.072;11.616;2023-02-14T01:12:11;97058.66;;;-0.72;87.63
9225;BME280;4647;48.072;11.616;2023-02-14T01:14:39;97067.03;;;-0.92;88.45
9225;BME280;4647;48.072;11.616;2023-02-14T01:17:08;97069.53;;;-1.01;88.52
9225;BME280;4647;48.072;11.616;2023-02-14T01:19:36;97058.53;;;-0.94;88.63
9225;BME280;4647;48.072;11.616;2023-02-14T01:22:06;97056.88;;;-0.90;87.64
9225;BME280;4647;48.072;11.616;2023-02-14T01:24:35;97057.06;;;-0.86;87.64
9225;BME280;4647;48.072;11.616;2023-02-14T01:27:06;97052.28;;;-1.03;87.84
9225;BME280;4647;48.072;11.616;2023-02-14T01:29:34;97051.84;;;-0.78;87.71
9225;BME280;4647;48.072;11.616;2023-02-14T01:32:03;97050.56;;;-0.80;87.84
9225;BME280;4647;48.072;11.616;2023-02-14T01:34:32;97055.50;;;-0.74;87.66
9225;BME280;4647;48.072;11.616;2023-02-14T01:37:00;97060.13;;;-0.93;87.82
9225;BME280;4647;48.072;11.616;2023-02-14T01:39:29;97059.88;;;-1.10;87.87
9225;BME280;4647;48.072;11.616;2023-02-14T01:41:57;97069.34;;;-1.04;87.87
9225;BME280;4647;48.072;11.616;2023-02-14T01:44:56;97062.03;;;-1.12;88.22
9225;BME280;4647;48.072;11.616;2023-02-14T01:47:26;97066.50;;;-1.27;88.03
9225;BME280;4647;48.072;11.616;2023-02-14T01:49:58;97066.22;;;-1.44;88.72
9225;BME280;4647;48.072;11.616;2023-02-14T01:52:31;97071.53;;;-1.44;88.92
9225;BME280;4647;48.072;11.616;2023-02-14T01:55:05;97073.00;;;-1.19;88.70
9225;BME280;4647;48.072;11.616;2023-02-14T01:57:37;97059.38;;;-1.31;88.93
9225;BME280;4647;48.072;11.616;2023-02-14T02:00:11;97042.22;;;-1.39;89.03
9225;BME280;4647;48.072;11.616;2023-02-14T02:02:53;97066.56;;;-1.13;88.62
9225;BME280;4647;48.072;11.616;2023-02-14T02:05:22;97068.03;;;-1.39;89.11
9225;BME280;4647;48.072;11.616;2023-02-14T02:07:51;97077.41;;;-1.47;89.49
9225;BME280;4647;48.072;11.616;2023-02-14T02:10:23;97072.31;;;-1.43;89.56
9225;BME280;4647;48.072;11.616;2023-02-14T02:12:52;97066.22;;;-1.44;89.69
9225;BME280;4647;48.072;11.616;2023-02-14T02:15:25;97058.81;;;-1.47;89.79
9225;BME280;4647;48.072;11.616;2023-02-14T02:18:02;97055.88;;;-1.45;90.02
9225;BME280;4647;48.072;11.616;2023-02-14T02:23:56;97064.56;;;-1.40;90.13
9225;BME280;4647;48.072;11.616;2023-02-14T02:29:55;97056.59;;;-1.59;89.86
9225;BME280;4647;48.072;11.616;2023-02-14T02:32:50;97054.66;;;-1.53;89.51
9225;BME280;4647;48.072;11.616;2023-02-14T02:35:35;97046.75;;;-1.58;89.44
9225;BME280;4647;48.072;11.616;2023-02-14T02:38:17;97055.72;;;-1.35;89.34
9225;BME280;4647;48.072;11.616;2023-02-14T02:40:59;97038.78;;;-1.39;89.25
9225;BME280;4647;48.072;11.616;2023-02-14T02:43:39;97041.16;;;-1.38;89.11
9225;BME280;4647;48.072;11.616;2023-02-14T02:46:16;97041.38;;;-1.53;89.10
9225;BME280;4647;48.072;11.616;2023-02-14T02:49:06;97024.84;;;-1.50;89.07
9225;BME280;4647;48.072;11.616;2023-02-14T02:51:41;97033.28;;;-1.62;88.57
9225;BME280;4647;48.072;11.616;2023-02-14T02:54:30;97038.59;;;-1.62;89.09
9225;BME280;4647;48.072;11.616;2023-02-14T02:57:04;97027.88;;;-1.57;88.91
9225;BME280;4647;48.072;11.616;2023-02-14T02:59:38;97030.03;;;-1.77;89.47
9225;BME280;4647;48.072;11.616;2023-02-14T03:02:18;97035.72;;;-1.84;89.94
9225;BME280;4647;48.072;11.616;2023-02-14T03:04:50;97042.22;;;-1.76;89.32
9225;BME280;4647;48.072;11.616;2023-02-14T03:07:28;97032.78;;;-1.64;88.80
9225;BME280;4647;48.072;11.616;2023-02-14T03:10:07;97032.53;;;-1.48;88.47
9225;BME280;4647;48.072;11.616;2023-02-14T03:12:49;97034.16;;;-1.34;87.82
9225;BME280;4647;48.072;11.616;2023-02-14T03:15:27;97031.44;;;-1.29;87.57
9225;BME280;4647;48.072;11.616;2023-02-14T03:18:06;97031.91;;;-1.59;88.34
9225;BME280;4647;48.072;11.616;2023-02-14T03:20:45;97030.16;;;-1.69;88.72
9225;BME280;4647;48.072;11.616;2023-02-14T03:23:20;97039.78;;;-1.73;88.30
9225;BME280;4647;48.072;11.616;2023-02-14T03:25:59;97037.34;;;-1.69;87.97
9225;BME280;4647;48.072;11.616;2023-02-14T03:28:36;97034.47;;;-1.54;87.67
9225;BME280;4647;48.072;11.616;2023-02-14T03:31:17;97035.63;;;-1.60;87.57
9225;BME280;4647;48.072;11.616;2023-02-14T03:33:52;97032.69;;;-1.40;87.41
9225;BME280;4647;48.072;11.616;2023-02-14T03:36:26;97026.66;;;-1.64;87.30
9225;BME280;4647;48.072;11.616;2023-02-14T03:39:04;97033.91;;;-1.89;88.60
9225;BME280;4647;48.072;11.616;2023-02-14T03:41:39;97041.78;;;-2.02;89.42
9225;BME280;4647;48.072;11.616;2023-02-14T03:44:11;97046.31;;;-2.03;89.44
9225;BME280;4647;48.072;11.616;2023-02-14T03:46:46;97049.19;;;-1.80;88.96
9225;BME280;4647;48.072;11.616;2023-02-14T03:49:21;97044.19;;;-1.63;88.02
9225;BME280;4647;48.072;11.616;2023-02-14T03:51:53;97049.34;;;-1.53;88.00
9225;BME280;4647;48.072;11.616;2023-02-14T03:54:27;97054.50;;;-1.43;87.54
9225;BME280;4647;48.072;11.616;2023-02-14T03:57:03;97044.09;;;-1.58;87.67
9225;BME280;4647;48.072;11.616;2023-02-14T03:59:34;97047.41;;;-1.66;88.15
9225;BME280;4647;48.072;11.616;2023-02-14T04:02:06;97036.75;;;-1.66;88.24
9225;BME280;4647;48.072;11.616;2023-02-14T04:04:41;97039.50;;;-1.71;88.59
9225;BME280;4647;48.072;11.616;2023-02-14T04:07:15;97046.06;;;-1.64;88.45
9225;BME280;4647;48.072;11.616;2023-02-14T04:09:47;97032.03;;;-1.69;88.04
9225;BME280;4647;48.072;11.616;2023-02-14T04:12:17;97041.75;;;-1.60;87.63
9225;BME280;4647;48.072;11.616;2023-02-14T04:14:46;97047.84;;;-1.59;87.82
9225;BME280;4647;48.072;11.616;2023-02-14T04:17:14;97047.69;;;-1.87;88.38
9225;BME280;4647;48.072;11.616;2023-02-14T04:19:55;97033.31;;;-1.67;87.98
9225;BME280;4647;48.072;11.616;2023-02-14T04:22:24;97040.88;;;-1.74;88.41
9225;BME280;4647;48.072;11.616;2023-02-14T04:24:54;97035.44;;;-1.64;87.82
9225;BME280;4647;48.072;11.616;2023-02-14T04:27:23;97040.28;;;-1.52;87.68
9225;BME280;4647;48.072;11.616;2023-02-14T04:29:51;97028.78;;;-1.47;87.29
9225;BME280;4647;48.072;11.616;2023-02-14T04:32:21;97035.56;;;-1.55;87.62
9225;BME280;4647;48.072;11.616;2023-02-14T04:34:49;97035.56;;;-1.55;87.05
9225;BME280;4647;48.072;11.616;2023-02-14T04:37:18;97038.38;;;-1.65;87.65
9225;BME280;4647;48.072;11.616;2023-02-14T04:39:47;97026.22;;;-1.71;87.55
9225;BME280;4647;48.072;11.616;2023-02-14T04:42:18;97027.59;;;-1.55;87.10
9225;BME280;4647;48.072;11.616;2023-02-14T04:44:46;97042.53;;;-2.21;89.00
9225;BME280;4647;48.072;11.616;2023-02-14T04:47:15;97031.13;;;-2.21;89.44
9225;BME280;4647;48.072;11.616;2023-02-14T04:49:43;97022.75;;;-1.91;88.90
9225;BME280;4647;48.072;11.616;2023-02-14T04:52:12;97015.25;;;-1.65;88.07
9225;BME280;4647;48.072;11.616;2023-02-14T04:54:40;97012.44;;;-2.11;88.26
9225;BME280;4647;48.072;11.616;2023-02-14T04:57:08;97014.88;;;-1.96;88.18
9225;BME280;4647;48.072;11.616;2023-02-14T04:59:39;97019.63;;;-1.74;88.06
9225;BME280;4647;48.072;11.616;2023-02-14T05:02:08;97022.22;;;-2.30;88.84
9225;BME280;4647;48.072;11.616;2023-02-14T05:04:37;97014.31;;;-2.35;89.48
9225;BME280;4647;48.072;11.616;2023-02-14T05:07:05;97007.16;;;-2.35;89.38
9225;BME280;4647;48.072;11.616;2023-02-14T05:09:34;97010.53;;;-2.29;89.04
9225;BME280;4647;48.072;11.616;2023-02-14T05:12:03;97004.50;;;-2.16;89.63
9225;BME280;4647;48.072;11.616;2023-02-14T05:14:31;97012.03;;;-2.23;89.78
9225;BME280;4647;48.072;11.616;2023-02-14T05:17:02;96999.59;;;-2.04;89.19
9225;BME280;4647;48.072;11.616;2023-02-14T05:19:31;97007.94;;;-2.16;88.67
9225;BME280;4647;48.072;11.616;2023-02-14T05:21:59;97008.81;;;-2.20;88.93
9225;BME280;4647;48.072;11.616;2023-02-14T05:24:28;97003.13;;;-2.32;89.71
9225;BME280;4647;48.072;11.616;2023-02-14T05:26:56;96994.97;;;-2.17;89.61
9225;BME280;4647;48.072;11.616;2023-02-14T05:29:25;96997.34;;;-1.97;89.11
9225;BME280;4647;48.072;11.616;2023-02-14T05:31:54;97000.09;;;-1.83;88.28
9225;BME280;4647;48.072;11.616;2023-02-14T05:34:25;96997.06;;;-1.76;88.13
9225;BME280;4647;48.072;11.616;2023-02-14T05:36:53;96996.66;;;-1.83;87.79
9225;BME280;4647;48.072;11.616;2023-02-14T05:39:22;97007.63;;;-1.71;87.78
9225;BME280;4647;48.072;11.616;2023-02-14T05:41:50;96993.78;;;-1.87;87.83
9225;BME280;4647;48.072;11.616;2023-02-14T05:44:19;97005.31;;;-1.59;87.95
9225;BME280;4647;48.072;11.616;2023-02-14T05:46:48;97005.91;;;-1.62;87.64
9225;BME280;4647;48.072;11.616;2023-02-14T05:49:16;97003.16;;;-1.95;87.33
9225;BME280;4647;48.072;11.616;2023-02-14T05:51:47;97013.16;;;-1.87;88.42
9225;BME280;4647;48.072;11.616;2023-02-14T05:54:15;97009.91;;;-2.02;88.13
9225;BME280;4647;48.072;11.616;2023-02-14T05:56:44;97010.09;;;-2.18;88.77
9225;BME280;4647;48.072;11.616;2023-02-14T05:59:12;97007.16;;;-2.16;89.30
9225;BME280;4647;48.072;11.616;2023-02-14T06:01:41;97011.88;;;-1.89;88.90
9225;BME280;4647;48.072;11.616;2023-02-14T06:04:10;97018.78;;;-1.88;88.09
9225;BME280;4647;48.072;11.616;2023-02-14T06:06:38;97014.13;;;-2.20;88.44
9225;BME280;4647;48.072;11.616;2023-02-14T06:09:09;97014.88;;;-1.96;88.17
9225;BME280;4647;48.072;11.616;2023-02-14T06:11:37;97018.03;;;-1.94;87.67
9225;BME280;4647;48.072;11.616;2023-02-14T06:14:06;97023.13;;;-1.78;87.70
9225;BME280;4647;48.072;11.616;2023-02-14T06:16:34;97024.84;;;-1.69;87.40
9225;BME280;4647;48.072;11.616;2023-02-14T06:19:03;97017.72;;;-1.92;87.88
9225;BME280;4647;48.072;11.616;2023-02-14T06:21:31;97021.00;;;-2.19;88.92
9225;BME280;4647;48.072;11.616;2023-02-14T06:23:59;97006.94;;;-2.20;88.61
9225;BME280;4647;48.072;11.616;2023-02-14T06:26:31;97025.16;;;-1.89;88.41
9225;BME280;4647;48.072;11.616;2023-02-14T06:29:01;97033.53;;;-2.01;87.94
9225;BME280;4647;48.072;11.616;2023-02-14T06:31:30;97034.53;;;-1.97;88.10
9225;BME280;4647;48.072;11.616;2023-02-14T06:33:59;97028.75;;;-1.80;87.79
9225;BME280;4647;48.072;11.616;2023-02-14T06:36:27;97035.63;;;-1.79;87.58
9225;BME280;4647;48.072;11.616;2023-02-14T06:38:56;97039.50;;;-1.71;87.02
9225;BME280;4647;48.072;11.616;2023-02-14T06:41:24;97045.41;;;-1.74;87.54
9225;BME280;4647;48.072;11.616;2023-02-14T06:43:55;97009.13;;;-2.03;87.59
9225;BME280;4647;48.072;11.616;2023-02-14T06:46:25;97042.78;;;-1.98;87.70
9225;BME280;4647;48.072;11.616;2023-02-14T06:48:53;97029.25;;;-2.21;87.78
9225;BME280;4647;48.072;11.616;2023-02-14T06:51:21;97034.09;;;-2.04;87.85
9225;BME280;4647;48.072;11.616;2023-02-14T06:53:50;97037.34;;;-2.31;88.13
9225;BME280;4647;48.072;11.616;2023-02-14T06:56:19;97029.22;;;-2.39;88.33
9225;BME280;4647;48.072;11.616;2023-02-14T06:58:47;97038.41;;;-2.08;87.69
9225;BME280;4647;48.072;11.616;2023-02-14T07:01:18;97040.91;;;-1.98;86.89
9225;BME280;4647;48.072;11.616;2023-02-14T07:03:47;97043.00;;;-1.95;86.75
9225;BME280;4647;48.072;11.616;2023-02-14T07:06:15;97027.22;;;-2.05;86.59
9225;BME280;4647;48.072;11.616;2023-02-14T07:08:43;97026.66;;;-1.64;86.33
9225;BME280;4647;48.072;11.616;2023-02-14T07:11:12;97031.47;;;-1.85;85.90
9225;BME280;4647;48.072;11.616;2023-02-14T07:13:40;97030.25;;;-1.74;86.49
9225;BME280;4647;48.072;11.616;2023-02-14T07:16:09;97017.63;;;-1.63;86.07
9225;BME280;4647;48.072;11.616;2023-02-14T07:18:40;97026.88;;;-1.42;85.72
9225;BME280;4647;48.072;11.616;2023-02-14T07:21:09;97029.66;;;-1.71;85.84
9225;BME280;4647;48.072;11.616;2023-02-14T07:23:37;97038.78;;;-1.96;86.15
9225;BME280;4647;48.072;11.616;2023-02-14T07:26:06;97036.47;;;-2.02;85.84
9225;BME280;4647;48.072;11.616;2023-02-14T07:28:34;97025.84;;;-2.02;86.40
9225;BME280;4647;48.072;11.616;2023-02-14T07:31:03;97024.72;;;-1.77;85.78
9225;BME280;4647;48.072;11.616;2023-02-14T07:33:31;97018.03;;;-1.56;84.90
9225;BME280;4647;48.072;11.616;2023-02-14T07:36:06;97029.16;;;-1.73;85.10
9225;BME280;4647;48.072;11.616;2023-02-14T07:38:36;97012.00;;;-1.62;84.82
9225;BME280;4647;48.072;11.616;2023-02-14T07:41:04;97010.91;;;-1.42;84.47
9225;BME280;4647;48.072;11.616;2023-02-14T07:43:32;97016.94;;;-1.36;84.48
9225;BME280;4647;48.072;11.616;2023-02-14T07:46:02;97020.38;;;-1.03;83.96
9225;BME280;4647;48.072;11.616;2023-02-14T07:48:30;97013.16;;;-0.70;82.72
9225;BME280;4647;48.072;11.616;2023-02-14T07:50:59;97008.78;;;-0.80;81.61
9225;BME280;4647;48.072;11.616;2023-02-14T07:53:30;97015.69;;;-0.93;82.27
9225;BME280;4647;48.072;11.616;2023-02-14T07:55:59;97004.56;;;-0.81;82.27
9225;BME280;4647;48.072;11.616;2023-02-14T07:58:27;97005.09;;;-0.98;82.42
9225;BME280;4647;48.072;11.616;2023-02-14T08:00:56;96995.53;;;-1.12;82.86
9225;BME280;4647;48.072;11.616;2023-02-14T08:03:24;96984.41;;;-1.14;83.44
9225;BME280;4647;48.072;11.616;2023-02-14T08:05:52;96987.50;;;-0.94;82.89
9225;BME280;4647;48.072;11.616;2023-02-14T08:08:25;96989.38;;;-0.94;83.21
9225;BME280;4647;48.072;11.616;2023-02-14T08:10:57;96985.63;;;-0.93;82.31
9225;BME280;4647;48.072;11.616;2023-02-14T08:13:26;96983.09;;;-0.57;81.82
9225;BME280;4647;48.072;11.616;2023-02-14T08:15:54;96983.47;;;-0.36;80.93
9225;BME280;4647;48.072;11.616;2023-02-14T08:18:34;96990.16;;;-0.11;80.01
9225;BME280;4647;48.072;11.616;2023-02-14T08:21:03;96987.41;;;-0.75;81.50
9225;BME280;4647;48.072;11.616;2023-02-14T08:23:33;96982.50;;;-0.68;80.49
9225;BME280;4647;48.072;11.616;2023-02-14T08:26:04;96994.13;;;-0.64;80.70
9225;BME280;4647;48.072;11.616;2023-02-14T08:28:33;96993.91;;;-0.81;81.00
9225;BME280;4647;48.072;11.616;2023-02-14T08:31:03;96989.38;;;-0.80;81.42
9225;BME280;4647;48.072;11.616;2023-02-14T08:33:31;96986.53;;;-0.43;80.31
9225;BME280;4647;48.072;11.616;2023-02-14T08:35:59;96987.00;;;-0.27;79.81
9225;BME280;4647;48.072;11.616;2023-02-14T08:38:28;96992.56;;;-0.23;78.92
9225;BME280;4647;48.072;11.616;2023-02-14T08:40:58;96986.25;;;-0.69;79.98
9225;BME280;4647;48.072;11.616;2023-02-14T08:43:30;96970.84;;;-0.31;79.95
9225;BME280;4647;48.072;11.616;2023-02-14T08:45:58;96993.25;;;0.18;79.19
9225;BME280;4647;48.072;11.616;2023-02-14T08:48:27;96987.97;;;0.05;79.57
9225;BME280;4647;48.072;11.616;2023-02-14T08:50:56;96990.66;;;0.27;78.94
9225;BME280;4647;48.072;11.616;2023-02-14T08:53:24;96998.38;;;0.15;78.22
9225;BME280;4647;48.072;11.616;2023-02-14T08:55:52;96998.81;;;-0.06;79.82
9225;BME280;4647;48.072;11.616;2023-02-14T08:58:21;96996.84;;;0.36;78.21
9225;BME280;4647;48.072;11.616;2023-02-14T09:00:52;96996.13;;;0.08;79.11
9225;BME280;4647;48.072;11.616;2023-02-14T09:03:20;96988.50;;;0.51;78.10
9225;BME280;4647;48.072;11.616;2023-02-14T09:05:49;97016.50;;;0.63;76.66
9225;BME280;4647;48.072;11.616;2023-02-14T09:08:17;97008.97;;;0.65;76.46
9225;BME280;4647;48.072;11.616;2023-02-14T09:10:46;97015.28;;;0.46;77.39
9225;BME280;4647;48.072;11.616;2023-02-14T09:13:14;97011.50;;;0.25;78.59
9225;BME280;4647;48.072;11.616;2023-02-14T09:15:43;97010.94;;;0.50;77.76
9225;BME280;4647;48.072;11.616;2023-02-14T09:18:14;97010.31;;;0.31;78.42
9225;BME280;4647;48.072;11.616;2023-02-14T09:20:42;97014.63;;;0.85;77.32
9225;BME280;4647;48.072;11.616;2023-02-14T09:23:11;97012.34;;;1.23;76.02
9225;BME280;4647;48.072;11.616;2023-02-14T09:25:39;96996.88;;;1.43;75.25
9225;BME280;4647;48.072;11.616;2023-02-14T09:28:08;97005.00;;;1.69;73.30
9225;BME280;4647;48.072;11.616;2023-02-14T09:30:36;97001.31;;;0.94;74.93
9225;BME280;4647;48.072;11.616;2023-02-14T09:33:04;96997.34;;;1.14;75.58
9225;BME280;4647;48.072;11.616;2023-02-14T09:35:35;97006.97;;;1.54;74.62
9225;BME280;4647;48.072;11.616;2023-02-14T09:38:16;96998.16;;;2.11;72.31
9225;BME280;4647;48.072;11.616;2023-02-14T09:40:45;96993.69;;;1.80;72.80
9225;BME280;4647;48.072;11.616;2023-02-14T09:43:20;96992.28;;;1.74;72.72
9225;BME280;4647;48.072;11.616;2023-02-14T09:45:55;97002.50;;;1.41;75.02
9225;BME280;4647;48.072;11.616;2023-02-14T09:48:30;96992.81;;;2.11;72.56
9225;BME280;4647;48.072;11.616;2023-02-14T09:51:05;97007.69;;;1.86;72.66
9225;BME280;4647;48.072;11.616;2023-02-14T09:53:39;97003.06;;;2.26;71.74
9225;BME280;4647;48.072;11.616;2023-02-14T09:56:16;96991.75;;;2.46;70.48
9225;BME280;4647;48.072;11.616;2023-02-14T09:58:52;96999.28;;;2.19;70.83
9225;BME280;4647;48.072;11.616;2023-02-14T10:01:25;96996.28;;;2.20;71.71
9225;BME280;4647;48.072;11.616;2023-02-14T10:04:15;96995.00;;;2.09;72.30
9225;BME280;4647;48.072;11.616;2023-02-14T10:06:52;96996.56;;;2.10;73.04
9225;BME280;4647;48.072;11.616;2023-02-14T10:09:41;96992.53;;;2.64;71.52
9225;BME280;4647;48.072;11.616;2023-02-14T10:12:31;96990.03;;;2.42;71.34
9225;BME280;4647;48.072;11.616;2023-02-14T10:15:06;96987.66;;;2.49;70.95
9225;BME280;4647;48.072;11.616;2023-02-14T10:17:41;96981.97;;;2.25;71.57
9225;BME280;4647;48.072;11.616;2023-02-14T10:20:18;96982.38;;;1.83;73.14
9225;BME280;4647;48.072;11.616;2023-02-14T10:22:56;96978.66;;;2.02;73.57
9225;BME280;4647;48.072;11.616;2023-02-14T10:25:29;96983.31;;;1.88;75.01
9225;BME280;4647;48.072;11.616;2023-02-14T10:28:00;96980.34;;;1.80;74.76
9225;BME280;4647;48.072;11.616;2023-02-14T10:30:36;96973.00;;;1.95;73.92
9225;BME280;4647;48.072;11.616;2023-02-14T10:33:13;96976.72;;;1.76;74.69
9225;BME280;4647;48.072;11.616;2023-02-14T10:35:46;96979.19;;;1.64;75.71
9225;BME280;4647;48.072;11.616;2023-02-14T10:38:28;96972.78;;;1.82;75.53
9225;BME280;4647;48.072;11.616;2023-02-14T10:41:13;96975.34;;;1.96;75.44
9225;BME280;4647;48.072;11.616;2023-02-14T10:43:52;96973.47;;;2.05;75.47
9225;BME280;4647;48.072;11.616;2023-02-14T10:46:34;96969.72;;;2.24;75.28
9225;BME280;4647;48.072;11.616;2023-02-14T10:49:20;96962.31;;;2.21;75.63
9225;BME280;4647;48.072;11.616;2023-02-14T10:51:56;96963.28;;;2.16;76.06
9225;BME280;4647;48.072;11.616;2023-02-14T10:54:35;96945.00;;;2.53;75.45
9225;BME280;4647;48.072;11.616;2023-02-14T10:57:11;96951.75;;;2.59;75.63
9225;BME280;4647;48.072;11.616;2023-02-14T10:59:46;96947.53;;;2.49;75.71
9225;BME280;4647;48.072;11.616;2023-02-14T11:02:22;96951.25;;;2.83;73.71
9225;BME280;4647;48.072;11.616;2023-02-14T11:04:52;96938.88;;;3.07;73.15
9225;BME280;4647;48.072;11.616;2023-02-14T11:07:21;96937.34;;;2.98;73.41
9225;BME280;4647;48.072;11.616;2023-02-14T11:09:52;96935.41;;;3.16;72.93
9225;BME280;4647;48.072;11.616;2023-02-14T11:12:35;96925.53;;;2.99;72.53
9225;BME280;4647;48.072;11.616;2023-02-14T11:15:09;96902.78;;;2.84;72.75
9225;BME280;4647;48.072;11.616;2023-02-14T11:17:41;96929.56;;;3.22;72.36
9225;BME280;4647;48.072;11.616;2023-02-14T11:20:21;96927.78;;;3.64;70.86
9225;BME280;4647;48.072;11.616;2023-02-14T11:22:50;96919.81;;;3.56;71.28
9225;BME280;4647;48.072;11.616;2023-02-14T11:25:23;96902.25;;;3.29;72.08
9225;BME280;4647;48.072;11.616;2023-02-14T11:27:57;96904.13;;;3.66;71.07
9225;BME280;4647;48.072;11.616;2023-02-14T11:30:29;96904.72;;;3.93;70.33
9225;BME280;4647;48.072;11.616;2023-02-14T11:32:58;96903.25;;;4.04;69.84
9225;BME280;4647;48.072;11.616;2023-02-14T11:35:29;96901.84;;;4.19;69.37
9225;BME280;4647;48.072;11.616;2023-02-14T11:38:03;96889.28;;;4.31;67.83
9225;BME280;4647;48.072;11.616;2023-02-14T11:40:37;96891.56;;;4.42;68.58
9225;BME280;4647;48.072;11.616;2023-02-14T11:43:18;96884.75;;;4.77;67.48
9225;BME280;4647;48.072;11.616;2023-02-14T11:45:47;96886.94;;;4.63;69.32
9225;BME280;4647;48.072;11.616;2023-02-14T11:48:18;96874.97;;;4.73;69.37
9225;BME280;4647;48.072;11.616;2023-02-14T11:50:54;96880.88;;;4.99;68.44
9225;BME280;4647;48.072;11.616;2023-02-14T11:53:26;96876.63;;;5.10;67.96
9225;BME280;4647;48.072;11.616;2023-02-14T11:56:00;96871.34;;;5.02;68.96
9225;BME280;4647;48.072;11.616;2023-02-14T11:58:32;96866.31;;;5.00;69.61
9225;BME280;4647;48.072;11.616;2023-02-14T12:01:02;96865.66;;;5.28;68.63
9225;BME280;4647;48.072;11.616;2023-02-14T12:03:36;96869.56;;;5.42;68.00
9225;BME280;4647;48.072;11.616;2023-02-14T12:06:05;96860.91;;;5.61;66.28
9225;BME280;4647;48.072;11.616;2023-02-14T12:08:34;96853.91;;;5.44;66.93
9225;BME280;4647;48.072;11.616;2023-02-14T12:11:17;96853.66;;;5.37;67.15
9225;BME280;4647;48.072;11.616;2023-02-14T12:13:51;96849.63;;;5.43;66.51
9225;BME280;4647;48.072;11.616;2023-02-14T12:16:23;96851.19;;;5.57;66.55
9225;BME280;4647;48.072;11.616;2023-02-14T12:18:58;96859.69;;;5.59;66.55
9225;BME280;4647;48.072;11.616;2023-02-14T12:21:45;96850.28;;;5.65;65.83
9225;BME280;4647;48.072;11.616;2023-02-14T12:24:21;96838.13;;;5.83;65.16
9225;BME280;4647;48.072;11.616;2023-02-14T12:27:03;96841.84;;;5.91;64.75
9225;BME280;4647;48.072;11.616;2023-02-14T12:29:36;96842.31;;;5.93;65.14
9225;BME280;4647;48.072;11.616;2023-02-14T12:32:15;96847.28;;;6.06;64.95
9225;BME280;4647;48.072;11.616;2023-02-14T12:34:46;96841.75;;;6.15;64.17
9225;BME280;4647;48.072;11.616;2023-02-14T12:37:22;96844.00;;;6.13;63.89
9225;BME280;4647;48.072;11.616;2023-02-14T12:40:06;96831.41;;;6.01;64.01
9225;BME280;4647;48.072;11.616;2023-02-14T12:42:53;96831.94;;;6.07;64.11
9225;BME280;4647;48.072;11.616;2023-02-14T12:45:31;96836.34;;;6.27;63.50
9225;BME280;4647;48.072;11.616;2023-02-14T12:48:15;96824.00;;;6.26;63.61
9225;BME280;4647;48.072;11.616;2023-02-14T12:50:53;96826.19;;;6.36;63.79
9225;BME280;4647;48.072;11.616;2023-02-14T12:53:31;96821.75;;;6.28;64.03
9225;BME280;4647;48.072;11.616;2023-02-14T12:56:09;96818.13;;;6.08;64.33
9225;BME280;4647;48.072;11.616;2023-02-14T12:58:58;96823.50;;;6.36;63.62
9225;BME280;4647;48.072;11.616;2023-02-14T13:01:46;96819.84;;;6.29;63.37
9225;BME280;4647;48.072;11.616;2023-02-14T13:04:34;96816.03;;;6.30;63.91
9225;BME280;4647;48.072;11.616;2023-02-14T13:07:14;96812.28;;;6.34;64.07
9225;BME280;4647;48.072;11.616;2023-02-14T13:09:47;96777.91;;;6.28;63.27
9225;BME280;4647;48.072;11.616;2023-02-14T13:12:30;96802.28;;;6.19;64.14
9225;BME280;4647;48.072;11.616;2023-02-14T13:15:17;96805.34;;;6.18;63.89
9225;BME280;4647;48.072;11.616;2023-02-14T13:17:51;96801.69;;;6.26;64.06
9225;BME280;4647;48.072;11.616;2023-02-14T13:20:37;96793.53;;;6.38;63.61
9225;BME280;4647;48.072;11.616;2023-02-14T13:23:11;96792.41;;;6.23;63.89
9225;BME280;4647;48.072;11.616;2023-02-14T13:25:44;96799.22;;;6.49;63.27
9225;BME280;4647;48.072;11.616;2023-02-14T13:28:16;96792.34;;;6.51;62.98
9225;BME280;4647;48.072;11.616;2023-02-14T13:30:48;96782.34;;;6.36;63.52
9225;BME280;4647;48.072;11.616;2023-02-14T13:33:24;96785.59;;;6.57;62.55
9225;BME280;4647;48.072;11.616;2023-02-14T13:35:55;96784.44;;;6.58;63.18
9225;BME280;4647;48.072;11.616;2023-02-14T13:38:25;96776.91;;;6.64;62.57
9225;BME280;4647;48.072;11.616;2023-02-14T13:40:56;96780.47;;;6.68;62.26
9225;BME280;4647;48.072;11.616;2023-02-14T13:43:44;96781.06;;;6.61;62.91
9225;BME280;4647;48.072;11.616;2023-02-14T13:46:18;96778.66;;;6.72;62.61
9225;BME280;4647;48.072;11.616;2023-02-14T13:49:00;96775.94;;;6.56;63.20
9225;BME280;4647;48.072;11.616;2023-02-14T13:51:46;96768.22;;;6.39;63.85
9225;BME280;4647;48.072;11.616;2023-02-14T13:54:28;96776.63;;;6.53;63.77